GCFV/FUE METAR and TAF weather

Enter ICAO airport designator
Station Type Date Time Source
GCFV METAR 2021/04/17 03:00 UTC NOAA

GCFV 170300Z AUTO 01013KT 9999 FEW019 19/15 Q1017


Station Type Date Time Source
GCFV Decoded METAR 2021/04/17 03:00 UTC NOAA

Fuerteventura / Aeropuerto, Spain (GCFV) 28-27N 013-52W 30M
Apr 16, 2021 - 11:00 PM EDT / 2021.04.17 0300 UTC
Wind: from the N (010 degrees) at 15 MPH (13 KT):0
Visibility: greater than 7 mile(s):0
Sky conditions: mostly clear
Temperature: 66 F (19 C)
Dew Point: 59 F (15 C)
Relative Humidity: 77%
Pressure (altimeter): 30.03 in. Hg (1017 hPa)
ob: GCFV 170300Z AUTO 01013KT 9999 FEW019 19/15 Q1017
cycle: 3

Station Type Date Time Source
GCFV TAF 2021/04/17 03:27 UTC NOAA

TAF GCFV 170200Z 1703/1803 35011KT 9999 SCT040 TX24/1714Z TN18/1706Z
BECMG 1709/1711 05013KT

Example: see airport list